Latest Weather Observations for Amberley

IDQ60801

Issued at 10:35 pm EST Thursday 30 October 2014 (issued every 30 minutes, with the page automatically refreshed every 10 minutes)

About weather observations | Map of weather stations | Latest weather observations for QLD | Other Formats
Station Details ID: 040004 Name: AMBERLEY AMO Lat: -27.63 Lon: 152.71 Height: 24.2 m
Data from the previous 72 hours. | See also: Recent months at Amberley
Date/Time
EST
Temp
°C
App
Temp
°C
Dew
Point
Rel
Hum
%
Delta-T
°C
Wind Press
QNH
hPa
Press
MSL
hPa
Rain
since 9 am
mm
Dir
 
Spd
km/h
Gust
km/h
Spd
kts
Gust
kts
30/10:30pm 21.3 22.7 17.9 81 2.1 ENE 7 9 4 5 1016.5 - 0.0
30/10:00pm 21.9 23.0 18.0 78 2.4 NE 9 13 5 7 1016.3 - 0.0
30/09:30pm 22.1 22.2 18.3 79 2.4 ENE 15 19 8 10 1015.8 - 0.0
30/09:00pm 22.5 22.5 18.2 76 2.7 ENE 15 22 8 12 1015.9 1015.8 0.0
30/08:30pm 22.6 22.2 18.1 76 2.8 ENE 17 28 9 15 1015.4 - 0.0
30/08:00pm 22.7 21.9 18.4 76 2.7 ENE 20 26 11 14 1015.1 - 0.0
30/07:30pm 22.8 21.1 18.2 75 2.9 ENE 24 35 13 19 1014.5 - 0.0
30/07:00pm 23.2 20.7 18.1 73 3.2 ENE 28 39 15 21 1014.0 - 0.0
30/06:30pm 23.7 21.1 17.9 70 3.6 ENE 28 41 15 22 1013.6 - 0.0
30/06:00pm 24.5 21.0 17.4 64 4.4 ENE 32 39 17 21 1013.0 1012.9 0.0
30/05:30pm 25.6 21.3 16.9 58 5.4 ENE 35 44 19 24 1012.7 - 0.0
30/05:00pm 26.8 23.3 16.5 53 6.4 ENE 30 41 16 22 1012.3 - 0.0
30/04:30pm 28.1 23.9 16.1 48 7.4 ENE 33 43 18 23 1012.0 - 0.0
30/04:00pm 29.0 24.5 15.3 43 8.4 ENE 33 41 18 22 1011.8 - 0.0
30/03:30pm 29.6 25.0 14.6 40 9.1 ENE 32 43 17 23 1011.7 - 0.0
30/03:00pm 30.5 27.1 14.8 38 9.6 NE 26 33 14 18 1011.9 1011.8 0.0
30/02:30pm 30.4 27.4 14.7 38 9.6 NE 24 37 13 20 1012.1 - 0.0
30/02:00pm 30.9 26.7 13.6 34 10.4 NE 28 35 15 19 1012.4 - 0.0
30/01:30pm 31.1 28.3 13.2 33 10.7 ENE 20 33 11 18 1012.7 - 0.0
30/01:00pm 31.0 29.6 13.3 34 10.6 NE 13 26 7 14 1013.3 - 0.0
30/12:30pm 30.3 30.0 13.2 35 10.2 E 7 11 4 6 1013.9 - 0.0
30/12:00pm 29.7 29.4 13.2 36 9.8 S 7 13 4 7 1014.7 1014.6 0.0
30/11:30am 28.7 27.7 13.4 39 9.1 ESE 11 20 6 11 1015.3 - 0.0
30/11:00am 28.5 27.1 13.5 39 8.9 ENE 13 24 7 13 1015.9 - 0.0
30/10:30am 27.3 26.7 13.4 42 8.2 NE 9 22 5 12 1016.4 - 0.0
30/10:00am 27.1 26.2 13.8 44 7.9 NNE 11 19 6 10 1016.8 - 0.0
30/09:30am 25.8 25.1 14.2 48 6.9 NE 11 17 6 9 1017.4 - 0.0
30/09:00am 25.2 24.1 14.2 50 6.5 ENE 13 19 7 10 1017.8 1017.7 0.0
30/08:30am 24.1 24.6 13.9 53 6.0 SW 4 9 2 5 1018.2 - 0.0
30/08:00am 23.4 23.1 14.4 57 5.3 SSE 9 13 5 7 1018.3 - 0.0
30/07:30am 21.7 21.2 13.7 60 4.6 SSW 9 13 5 7 1018.4 - 0.0
30/07:00am 20.2 20.4 14.7 70 3.2 SSW 7 11 4 6 1018.4 - 0.0
30/06:30am 17.6 19.2 15.0 85 1.5 CALM 0 0 0 0 1018.0 - 0.0
30/06:00am 15.7 17.2 14.6 93 0.6 CALM 0 0 0 0 1017.6 1017.5 0.0
30/05:30am 14.1 15.2 13.4 96 0.4 CALM 0 0 0 0 1017.3 - 0.0
30/05:00am 13.8 13.4 13.1 96 0.4 SSW 7 9 4 5 1016.8 - 0.0
30/04:30am 14.3 14.0 13.2 93 0.6 SSW 7 7 4 4 1016.5 - 0.0
30/04:00am 14.4 15.1 13.5 94 0.5 S 2 7 1 4 1016.4 - 0.0
30/03:30am 14.7 16.0 14.0 96 0.4 CALM 0 0 0 0 1016.3 - 0.0
30/03:00am 15.2 15.5 14.5 96 0.4 S 6 7 3 4 1016.3 1016.2 0.0
30/02:30am 15.2 15.3 14.5 96 0.4 S 7 9 4 5 1016.4 - 0.0
30/02:00am 15.9 15.9 14.1 89 1.0 S 7 7 4 4 1016.4 - 0.0
30/01:30am 16.4 16.2 14.7 90 1.0 S 9 9 5 5 1016.6 - 0.0
30/01:00am 17.1 17.4 15.0 87 1.2 S 7 9 4 5 1016.7 - 0.0
30/12:30am 17.1 17.1 15.2 88 1.1 S 9 9 5 5 1016.7 - 0.0
30/12:00am 17.1 17.5 15.4 90 1.0 S 7 7 4 4 1017.1 1017.0 0.0
 
Date/Time
EST
Temp
°C
App
Temp
°C
Dew
Point
Rel
Hum
%
Delta-T
°C
Wind Press
QNH
hPa
Press
MSL
hPa
Rain
since 9 am
mm
Dir
 
Spd
km/h
Gust
km/h
Spd
kts
Gust
kts
29/11:30pm 18.0 19.8 15.6 86 1.4 CALM 0 0 0 0 1017.4 - 0.0
29/11:00pm 19.3 21.3 16.1 82 1.9 CALM 0 0 0 0 1017.5 - 0.0
29/10:30pm 19.7 20.7 16.4 81 2.0 ESE 6 7 3 4 1017.6 - 0.0
29/10:00pm 20.5 21.4 16.5 78 2.4 E 7 9 4 5 1017.4 - 0.0
29/09:30pm 21.3 21.4 16.5 74 2.9 E 11 15 6 8 1017.3 - 0.0
29/09:00pm 21.7 21.4 16.4 72 3.2 ENE 13 17 7 9 1017.3 1017.2 0.0
29/08:30pm 22.0 21.5 16.0 68 3.6 ENE 13 19 7 10 1017.1 - 0.0
29/08:00pm 22.2 20.8 15.5 66 4.0 ENE 17 22 9 12 1016.6 - 0.0
29/07:30pm 22.6 20.6 15.0 62 4.5 ENE 19 26 10 14 1016.1 - 0.0
29/07:00pm 22.9 20.0 15.0 61 4.7 ENE 24 33 13 18 1015.6 - 0.0
29/06:30pm 23.4 18.8 13.6 54 5.7 ENE 30 43 16 23 1015.0 - 0.0
29/06:00pm 24.1 19.0 13.2 50 6.3 ENE 32 41 17 22 1014.4 - 0.0
29/05:30pm 25.1 18.7 10.8 40 8.0 ENE 35 50 19 27 1013.6 - 0.0
29/05:00pm 26.6 19.8 9.1 33 9.6 ENE 35 46 19 25 1013.0 - 0.0
29/04:30pm 27.2 19.8 8.4 30 10.2 ENE 37 48 20 26 1012.5 - 0.0
29/04:00pm 28.2 22.1 10.5 33 10.0 ENE 33 48 18 26 1012.1 - 0.0
29/03:30pm 28.6 22.3 11.1 33 10.0 ENE 35 44 19 24 1011.9 - 0.0
29/03:00pm 30.0 24.5 11.8 32 10.6 ENE 32 43 17 23 1011.8 1011.7 0.0
29/02:30pm 30.0 24.9 13.2 35 10.0 ENE 32 41 17 22 1011.7 - 0.0
29/02:00pm 31.6 28.5 14.6 35 10.4 E 24 39 13 21 1011.7 - 0.0
29/01:48pm 32.0 27.2 14.1 33 10.9 ENE 32 41 17 22 1011.9 - 0.0
29/01:30pm 32.9 30.4 9.8 24 13.2 NNE 13 22 7 12 1011.9 - 0.0
29/01:00pm 32.8 31.6 9.6 24 13.2 SSE 6 13 3 7 1012.3 - 0.0
29/12:30pm 32.2 28.8 9.2 24 13.0 E 17 28 9 15 1012.7 - 0.0
29/12:00pm 31.5 28.7 8.5 24 12.8 ENE 13 22 7 12 1013.1 1013.0 0.0
29/11:30am 31.2 28.8 8.8 25 12.5 E 11 17 6 9 1013.5 - 0.0
29/11:00am 30.0 28.4 11.5 32 10.7 NNE 11 20 6 11 1013.8 - 0.0
29/10:30am 29.3 28.4 12.6 35 9.8 S 9 20 5 11 1014.3 - 0.0
29/10:00am 27.8 27.5 14.3 43 8.1 ENE 9 17 5 9 1014.6 - 0.0
29/09:30am 27.0 27.4 14.7 47 7.4 SE 6 15 3 8 1014.8 - 0.0
29/09:00am 25.4 25.7 14.9 52 6.3 NNE 7 13 4 7 1014.9 1014.8 0.0
29/08:30am 23.8 24.7 16.1 62 4.7 E 6 11 3 6 1014.9 - 0.0
29/08:00am 22.1 24.1 17.0 73 3.1 NW 2 7 1 4 1014.8 - 0.0
29/07:30am 19.4 20.4 16.9 85 1.5 NNW 7 9 4 5 1014.6 - 0.0
29/07:00am 17.3 19.0 16.1 93 0.7 NW 2 7 1 4 1014.4 - 0.0
29/06:30am 15.7 17.1 15.4 98 0.2 SSW 2 7 1 4 1014.2 - 0.0
29/06:00am 14.1 14.9 13.7 97 0.2 SSW 2 7 1 4 1013.7 1013.6 0.0
29/05:50am 13.9 14.6 13.4 97 0.3 SSW 2 7 1 4 1013.5 - 0.0
29/05:41am 13.1 12.8 12.7 97 0.2 SSW 6 9 3 5 1013.4 - 0.0
29/05:30am 12.6 13.3 12.2 97 0.2 CALM 0 0 0 0 1013.1 - 0.0
29/05:00am 13.5 13.1 13.0 97 0.3 SSW 7 9 4 5 1012.6 - 0.0
29/04:56am 13.3 12.9 12.9 97 0.2 SSW 7 11 4 6 1012.6 - 0.0
29/04:48am 13.3 12.4 12.7 96 0.3 SSW 9 13 5 7 1012.6 - 0.0
29/04:30am 12.9 13.7 12.5 97 0.2 CALM 0 0 0 0 1012.1 - 0.0
29/04:00am 14.6 15.9 14.1 97 0.3 CALM 0 0 0 0 1012.1 - 0.0
29/03:49am 14.3 15.5 13.8 97 0.3 CALM 0 0 0 0 1012.0 - 0.0
29/03:48am 14.4 15.6 13.9 97 0.3 CALM 0 6 0 3 1012.0 - 0.0
29/03:30am 13.3 13.0 12.6 95 0.4 SE 6 9 3 5 1011.9 - 0.0
29/03:00am 14.0 15.1 13.6 97 0.2 CALM 0 0 0 0 1011.5 1011.4 0.0
29/02:30am 14.5 15.8 14.1 97 0.2 CALM 0 0 0 0 1011.5 - 0.0
29/02:00am 14.4 15.7 14.2 99 0.1 CALM 0 0 0 0 1011.2 - 0.0
29/01:30am 15.1 16.6 14.6 97 0.3 CALM 0 0 0 0 1011.2 - 0.0
29/01:01am 15.9 17.5 15.0 94 0.5 CALM 0 0 0 0 1011.3 - 0.0
29/01:00am 16.0 17.7 15.3 96 0.4 CALM 0 0 0 0 1011.3 - 0.0
29/12:30am 16.8 18.8 16.0 95 0.5 CALM 0 0 0 0 1011.5 - 0.0
29/12:00am 16.8 18.8 16.0 95 0.5 CALM 0 0 0 0 1011.7 1011.6 0.0
 
Date/Time
EST
Temp
°C
App
Temp
°C
Dew
Point
Rel
Hum
%
Delta-T
°C
Wind Press
QNH
hPa
Press
MSL
hPa
Rain
since 9 am
mm
Dir
 
Spd
km/h
Gust
km/h
Spd
kts
Gust
kts
28/11:30pm 17.5 19.6 16.3 93 0.7 CALM 0 0 0 0 1011.8 - 0.0
28/11:00pm 17.8 19.9 16.3 91 0.9 CALM 0 0 0 0 1012.2 - 0.0
28/10:30pm 18.9 21.1 16.6 86 1.4 CALM 0 0 0 0 1012.1 - 0.0
28/10:00pm 20.1 22.4 16.8 81 2.0 CALM 0 0 0 0 1012.1 - 0.0
28/09:30pm 20.9 23.0 17.1 79 2.3 SE 2 6 1 3 1012.0 - 0.0
28/09:00pm 21.1 22.2 17.0 77 2.5 SSE 7 9 4 5 1011.8 1011.7 0.0
28/08:30pm 21.8 22.6 17.2 75 2.8 SE 9 11 5 6 1011.8 - 0.0
28/08:00pm 22.8 23.7 17.6 72 3.2 ESE 9 13 5 7 1011.7 - 0.0
28/07:30pm 23.9 24.1 17.6 68 3.9 E 13 17 7 9 1011.3 - 0.0
28/07:00pm 24.6 23.6 17.6 65 4.4 ENE 19 26 10 14 1010.7 - 0.0
28/06:30pm 25.4 24.5 17.8 62 4.8 ENE 19 28 10 15 1010.2 - 0.0
28/06:00pm 26.0 24.5 17.7 60 5.2 E 22 30 12 16 1009.6 1009.5 0.0
28/05:30pm 26.9 24.5 17.3 55 6.0 ENE 26 33 14 18 1009.1 - 0.0
28/05:00pm 27.8 24.2 17.1 52 6.7 ENE 32 41 17 22 1008.6 - 0.0
28/04:30pm 28.7 25.0 17.5 50 7.1 ENE 33 43 18 23 1008.2 - 0.0
28/04:00pm 29.1 25.5 17.6 50 7.3 ENE 33 44 18 24 1007.9 - 0.0
28/03:30pm 29.3 25.2 17.3 48 7.6 NE 35 50 19 27 1007.8 - 0.0
28/03:00pm 29.6 25.8 17.1 47 7.9 ENE 33 44 18 24 1008.0 1007.9 0.0
28/02:30pm 29.7 24.9 16.6 45 8.2 ENE 37 50 20 27 1008.2 - 0.0
28/02:00pm 30.1 24.5 16.4 43 8.6 ENE 41 54 22 29 1008.5 - 0.0
28/01:30pm 31.4 25.6 16.1 39 9.6 ENE 41 54 22 29 1008.7 - 0.0
28/01:25pm 30.7 25.5 15.5 39 9.4 ENE 37 44 20 24 1008.5 - 0.0
28/01:20pm 30.3 25.4 15.4 40 9.2 NE 35 41 19 22 1008.7 - 0.0
28/01:00pm 31.4 25.7 16.3 40 9.5 ENE 41 52 22 28 1008.8 - 0.0
28/12:30pm 31.0 25.6 16.1 40 9.3 NE 39 52 21 28 1008.9 - 0.0
28/12:00pm 31.9 26.4 16.7 40 9.6 ENE 41 52 22 28 1009.0 1008.9 0.0
28/11:30am 32.0 27.9 17.3 41 9.4 ENE 35 44 19 24 1009.1 - 0.0
28/11:00am 32.6 28.6 16.2 37 10.3 E 32 37 17 20 1009.3 - 0.0
28/10:30am 35.6 34.3 12.6 25 13.9 SSW 11 28 6 15 1009.7 - 0.0
28/10:00am 35.9 33.7 9.3 19 15.3 WSW 11 17 6 9 1009.5 - 0.0
28/09:30am 35.4 32.3 8.7 19 15.2 W 15 22 8 12 1009.8 - 0.0
28/09:00am 34.2 31.8 9.9 22 14.0 W 13 24 7 13 1010.0 1009.9 2.2
28/08:30am 33.8 30.2 10.0 23 13.7 NW 19 33 10 18 1010.0 - 2.2
28/08:00am 32.2 29.0 10.0 25 12.7 NW 17 26 9 14 1010.1 - 2.2
28/07:30am 30.7 28.3 11.4 30 11.2 NW 15 22 8 12 1010.2 - 2.2
28/07:00am 27.5 27.3 13.5 42 8.3 WNW 7 9 4 5 1010.1 - 2.2
28/06:30am 26.0 25.7 13.4 45 7.4 NNW 7 11 4 6 1010.0 - 2.2
28/06:00am 21.8 23.5 15.1 65 4.0 CALM 0 0 0 0 1009.7 1009.6 2.2
28/05:30am 20.7 22.4 15.1 70 3.3 CALM 0 0 0 0 1009.3 - 2.2
28/05:00am 21.2 22.7 14.6 66 3.9 CALM 0 6 0 3 1009.3 - 2.2
28/04:30am 20.4 22.1 15.3 72 3.0 CALM 0 0 0 0 1009.0 - 2.2
28/04:00am 19.7 20.5 15.8 78 2.3 SSW 6 9 3 5 1008.9 - 2.2
28/03:30am 21.2 21.0 14.8 67 3.8 SSW 9 15 5 8 1008.8 - 2.2
28/03:00am 22.8 22.8 14.3 58 5.0 WSW 7 9 4 5 1008.5 1008.4 2.2
28/02:30am 24.4 25.1 13.5 50 6.4 WSW 2 7 1 4 1008.5 - 2.2
28/02:00am 24.9 23.9 13.3 48 6.8 NNW 11 15 6 8 1008.6 - 2.2
28/01:30am 24.9 24.7 13.7 49 6.6 NNW 7 9 4 5 1008.8 - 2.2
28/01:00am 25.3 24.4 13.6 48 6.9 NNW 11 17 6 9 1009.2 - 2.2
28/12:30am 26.0 25.7 13.4 45 7.4 NW 7 11 4 6 1009.4 - 2.2
28/12:00am 27.0 24.4 13.3 42 8.1 WNW 19 26 10 14 1009.6 1009.5 2.2
 
Date/Time
EST
Temp
°C
App
Temp
°C
Dew
Point
Rel
Hum
%
Delta-T
°C
Wind Press
QNH
hPa
Press
MSL
hPa
Rain
since 9 am
mm
Dir
 
Spd
km/h
Gust
km/h
Spd
kts
Gust
kts
27/11:30pm 27.3 25.0 13.0 41 8.4 NNW 17 24 9 13 1009.7 - 2.2
27/11:00pm 26.6 25.7 13.8 45 7.6 N 11 17 6 9 1010.2 - 2.2

Other Formats:

Comma delimited format used in spreadsheet applications
http://www.bom.gov.au/fwo/IDQ60801/IDQ60801.94568.axf

JavaScript Object Notation format (JSON) in row-major order
http://www.bom.gov.au/fwo/IDQ60801/IDQ60801.94568.json